Time;durP1;ratioP1;P1;durP2;ratioP2;P2;SDS_P1;SDS_P2;PMS_P1;PMS_P2;Temp;Humidity;BMP_temperature;BMP_pressure;BME280_temperature;BME280_humidity;BME280_pressure;Samples;Min_cycle;Max_cycle;Signal;HPM_P1;HPM_P2
2022/05/30 00:01:51;;;;;;;5.72;5.43;;;;;;;9.15;100.00;100814.78;6080134;23;20094;-72
2022/05/30 00:04:18;;;;;;;3.85;3.72;;;;;;;9.00;100.00;100789.31;6055166;23;20039;-71
2022/05/30 00:06:44;;;;;;;4.05;3.85;;;;;;;8.93;100.00;100780.00;6084276;23;20631;-71
2022/05/30 00:09:13;;;;;;;4.10;3.90;;;;;;;8.90;100.00;100775.78;6051798;23;20159;-72
2022/05/30 00:11:41;;;;;;;3.83;3.72;;;;;;;8.91;100.00;100777.44;6078147;23;20093;-71
2022/05/30 00:14:07;;;;;;;3.72;3.63;;;;;;;8.97;100.00;100792.88;6050986;23;20294;-71
2022/05/30 00:16:34;;;;;;;3.95;3.80;;;;;;;9.18;100.00;100819.91;6080939;23;20010;-71
2022/05/30 00:19:01;;;;;;;5.82;5.43;;;;;;;8.98;100.00;100788.53;6055192;23;20448;-73
2022/05/30 00:21:27;;;;;;;4.03;3.83;;;;;;;9.01;100.00;100801.47;6081663;23;20040;-71
2022/05/30 00:23:55;;;;;;;5.35;5.15;;;;;;;9.09;100.00;100804.59;6085374;23;20392;-71
2022/05/30 00:26:23;;;;;;;4.00;3.80;;;;;;;9.03;100.00;100798.78;6080308;23;20073;-71
2022/05/30 00:28:50;;;;;;;4.47;4.28;;;;;;;9.18;100.00;100814.66;6052824;23;20006;-71
2022/05/30 00:31:18;;;;;;;4.00;3.80;;;;;;;8.77;100.00;100751.03;6052940;23;20032;-71
2022/05/30 00:33:46;;;;;;;4.20;4.00;;;;;;;7.85;100.00;100617.22;6044943;23;20080;-70
2022/05/30 00:36:12;;;;;;;4.18;3.97;;;;;;;8.94;100.00;100789.53;6041068;23;20014;-71
2022/05/30 00:38:39;;;;;;;4.10;3.90;;;;;;;8.94;100.00;100784.31;6085520;23;20632;-71
2022/05/30 00:41:06;;;;;;;4.53;4.32;;;;;;;9.09;100.00;100811.59;6040778;23;20046;-71
2022/05/30 00:43:36;;;;;;;3.80;3.70;;;;;;;9.07;100.00;100803.81;6086404;23;20040;-71
2022/05/30 00:46:12;;;;;;;5.28;5.07;;;;;;;9.08;100.00;100802.91;6039135;23;20026;-72
2022/05/30 00:48:50;;;;;;;3.88;3.78;;;;;;;9.06;100.00;100796.00;6074637;23;20017;-72
2022/05/30 00:51:24;;;;;;;4.00;3.80;;;;;;;8.93;100.00;100773.00;6064066;23;20414;-71
2022/05/30 00:53:55;;;;;;;4.50;4.30;;;;;;;9.09;100.00;100790.66;6050941;23;20027;-73
2022/05/30 00:56:31;;;;;;;3.80;3.70;;;;;;;9.11;100.00;100791.44;6088880;23;20336;-71
2022/05/30 00:58:58;;;;;;;5.32;5.13;;;;;;;9.11;100.00;100788.81;6079038;23;20010;-70
2022/05/30 01:01:25;;;;;;;3.80;3.70;;;;;;;9.11;100.00;100792.28;6055792;23;20062;-71
2022/05/30 01:06:43;;;;;;;3.72;3.63;;;;;;;9.10;100.00;100800.19;6054532;23;20014;-70
2022/05/30 01:09:12;;;;;;;4.20;4.00;;;;;;;9.06;100.00;100802.13;6054757;23;20424;-71
2022/05/30 01:12:00;;;;;;;3.83;3.72;;;;;;;9.09;99.66;100807.19;6084397;23;20522;-71
2022/05/30 01:14:30;;;;;;;4.00;3.80;;;;;;;9.09;99.09;100803.75;6051572;23;20033;-71
2022/05/30 01:16:58;;;;;;;5.47;5.28;;;;;;;9.07;100.00;100806.41;6033622;23;20016;-71
2022/05/30 01:19:25;;;;;;;4.55;4.25;;;;;;;8.98;100.00;100796.38;6061333;23;20022;-71
2022/05/30 01:22:30;;;;;;;5.30;5.10;;;;;;;8.86;100.00;100796.88;6073589;23;20364;-72
2022/05/30 01:25:00;;;;;;;5.30;5.10;;;;;;;8.85;100.00;100796.03;6038106;23;20412;-71
2022/05/30 01:27:53;;;;;;;3.85;3.72;;;;;;;8.65;100.00;100772.50;6055992;23;20091;-71
2022/05/30 01:30:19;;;;;;;4.00;3.80;;;;;;;8.62;100.00;100770.88;6056433;23;20030;-72
2022/05/30 01:32:46;;;;;;;3.95;3.78;;;;;;;8.67;100.00;100800.28;6045266;23;20044;-70
2022/05/30 01:35:21;;;;;;;4.05;3.85;;;;;;;8.69;100.00;100790.63;6077543;23;20031;-71
2022/05/30 01:37:48;;;;;;;4.10;3.95;;;;;;;8.27;100.00;100723.50;6049845;23;20014;-70
2022/05/30 01:40:15;;;;;;;4.00;3.80;;;;;;;8.71;100.00;100793.19;6036412;23;20037;-71
2022/05/30 01:42:41;;;;;;;3.97;3.80;;;;;;;8.42;100.00;100737.72;6051674;23;20021;-72
2022/05/30 01:45:08;;;;;;;4.20;4.00;;;;;;;8.74;100.00;100783.44;6063470;23;20021;-72
2022/05/30 01:47:35;;;;;;;3.80;3.70;;;;;;;8.66;100.00;100774.19;6054723;23;20049;-72
2022/05/30 01:50:02;;;;;;;5.68;5.45;;;;;;;8.74;100.00;100788.66;6047165;23;20090;-72
2022/05/30 01:52:29;;;;;;;4.10;3.90;;;;;;;8.74;100.00;100778.19;6082110;23;20037;-72
2022/05/30 01:54:55;;;;;;;5.65;5.45;;;;;;;8.76;100.00;100778.16;6029818;23;20095;-72
2022/05/30 01:57:21;;;;;;;4.10;3.90;;;;;;;8.74;100.00;100772.97;6050696;23;20028;-72
2022/05/30 01:59:48;;;;;;;4.30;4.10;;;;;;;8.74;100.00;100775.59;6056493;23;20038;-71
2022/05/30 02:02:14;;;;;;;4.40;4.20;;;;;;;8.57;100.00;100754.53;6058467;23;20021;-72
2022/05/30 02:04:41;;;;;;;4.10;3.90;;;;;;;8.55;100.00;100745.88;6054326;23;20071;-71
2022/05/30 02:07:07;;;;;;;4.03;3.83;;;;;;;8.73;100.00;100775.66;6077662;23;20085;-72
2022/05/30 02:09:34;;;;;;;4.20;4.00;;;;;;;8.46;100.00;100736.69;6051193;23;20022;-72
2022/05/30 02:12:00;;;;;;;5.53;5.32;;;;;;;8.50;100.00;100732.16;6050863;23;20025;-72
2022/05/30 02:14:26;;;;;;;3.80;3.70;;;;;;;8.64;100.00;100753.34;6050945;23;20022;-72
2022/05/30 02:17:04;;;;;;;5.55;5.35;;;;;;;8.51;100.00;100731.25;6078918;23;20411;-72
2022/05/30 02:19:34;;;;;;;3.97;3.80;;;;;;;8.66;100.00;100766.34;6046423;23;20252;-72
2022/05/30 02:22:01;;;;;;;5.55;5.35;;;;;;;8.68;100.00;100762.78;6077883;23;20171;-72
2022/05/30 02:24:28;;;;;;;4.10;3.90;;;;;;;8.66;100.00;100761.13;6055138;23;20012;-71
2022/05/30 02:26:54;;;;;;;5.32;5.13;;;;;;;8.30;100.00;100710.31;6072206;23;20535;-73
2022/05/30 02:29:20;;;;;;;3.80;3.70;;;;;;;8.65;100.00;100773.34;6048728;23;20097;-72
2022/05/30 02:31:47;;;;;;;4.13;3.92;;;;;;;8.59;100.00;100768.38;6105819;23;20030;-71
2022/05/30 02:36:58;;;;;;;6.03;5.72;;;;;;;8.32;100.00;100723.31;6101559;23;20021;-72
2022/05/30 02:39:27;;;;;;;4.38;4.18;;;;;;;8.60;100.00;100762.25;6054209;23;20141;-72
2022/05/30 02:41:54;;;;;;;6.10;5.80;;;;;;;8.59;100.00;100758.75;6077144;23;20353;-72
2022/05/30 02:44:23;;;;;;;3.75;3.65;;;;;;;8.60;100.00;100767.47;6050850;23;20530;-72
2022/05/30 02:46:51;;;;;;;4.15;3.97;;;;;;;8.47;100.00;100742.75;6077519;23;20073;-71
2022/05/30 02:49:18;;;;;;;3.78;3.67;;;;;;;8.63;100.00;100759.50;6047617;23;20026;-72
2022/05/30 02:51:45;;;;;;;3.83;3.72;;;;;;;7.46;100.00;100604.91;6059996;23;20088;-72
2022/05/30 02:54:13;;;;;;;4.00;3.80;;;;;;;8.44;100.00;100730.66;6055127;23;20021;-72
2022/05/30 02:56:40;;;;;;;4.20;4.00;;;;;;;8.65;100.00;100762.88;6086911;23;20021;-72
2022/05/30 02:59:07;;;;;;;4.10;3.90;;;;;;;8.29;100.00;100702.53;6040717;23;20022;-72
2022/05/30 03:01:35;;;;;;;4.13;3.92;;;;;;;8.50;100.00;100742.59;6043331;23;20026;-73
2022/05/30 03:04:04;;;;;;;5.55;5.35;;;;;;;8.65;100.00;100765.50;6050016;23;20034;-72
2022/05/30 03:06:31;;;;;;;3.97;3.80;;;;;;;8.19;100.00;100700.28;6077035;23;20255;-72
2022/05/30 03:08:57;;;;;;;4.80;4.60;;;;;;;8.57;100.00;100759.75;6057890;23;20291;-72
2022/05/30 03:11:24;;;;;;;3.80;3.70;;;;;;;8.63;100.00;100767.34;6066506;23;20056;-72
2022/05/30 03:13:50;;;;;;;4.35;4.15;;;;;;;8.58;100.00;100774.56;6058531;23;20026;-71
2022/05/30 03:16:17;;;;;;;3.60;3.50;;;;;;;8.34;100.00;100737.19;6053211;23;20018;-73
2022/05/30 03:18:45;;;;;;;4.40;4.20;;;;;;;7.28;100.00;100575.19;6072860;23;20105;-72
2022/05/30 03:21:12;;;;;;;3.83;3.72;;;;;;;8.58;100.00;100771.94;6082263;23;20083;-71
2022/05/30 03:23:38;;;;;;;3.75;3.65;;;;;;;8.33;100.00;100741.53;6044447;23;20047;-73
2022/05/30 03:26:06;;;;;;;4.75;4.55;;;;;;;8.48;100.00;100766.25;6080089;23;20463;-71
2022/05/30 03:28:33;;;;;;;3.85;3.75;;;;;;;8.26;100.00;100734.00;6044485;23;20022;-72
2022/05/30 03:31:01;;;;;;;5.57;5.38;;;;;;;8.55;100.00;100775.50;6051093;23;20073;-71
2022/05/30 03:33:28;;;;;;;4.00;3.80;;;;;;;8.11;100.00;100709.38;6057135;23;20459;-72
2022/05/30 03:35:55;;;;;;;5.28;5.07;;;;;;;8.47;100.00;100763.69;6078783;23;20033;-72
2022/05/30 03:38:21;;;;;;;3.90;3.70;;;;;;;8.61;100.00;100779.63;6056927;23;20037;-68
2022/05/30 03:40:48;;;;;;;4.05;3.90;;;;;;;8.43;100.00;100749.88;6067027;23;20029;-69
2022/05/30 03:43:14;;;;;;;3.95;3.80;;;;;;;8.66;100.00;100779.44;6050370;23;20731;-70
2022/05/30 03:45:43;;;;;;;4.00;3.83;;;;;;;8.64;100.00;100779.53;6087470;23;20049;-69
2022/05/30 03:48:12;;;;;;;4.10;3.90;;;;;;;8.55;100.00;100769.44;6046525;23;20265;-71
2022/05/30 03:50:39;;;;;;;4.07;3.88;;;;;;;8.62;100.00;100791.81;6083802;23;20085;-71
2022/05/30 03:53:06;;;;;;;4.88;4.68;;;;;;;8.30;100.00;100757.38;6052027;23;20029;-71
2022/05/30 03:55:39;;;;;;;3.90;3.80;;;;;;;8.60;100.00;100777.94;6077279;23;20535;-72
2022/05/30 03:58:07;;;;;;;4.53;4.32;;;;;;;8.43;100.00;100752.50;6045589;23;20074;-72
2022/05/30 04:00:35;;;;;;;4.10;3.90;;;;;;;8.43;100.00;100749.03;6080922;23;20055;-72
2022/05/30 04:03:03;;;;;;;5.93;5.68;;;;;;;8.61;100.00;100781.41;6051397;23;20017;-72
2022/05/30 04:05:30;;;;;;;4.10;3.90;;;;;;;8.65;100.00;100796.06;6079660;23;20353;-70
2022/05/30 04:07:59;;;;;;;5.55;5.35;;;;;;;8.26;100.00;100723.53;6048813;23;20152;-69
2022/05/30 04:10:26;;;;;;;3.70;3.60;;;;;;;8.63;100.00;100788.25;6086701;23;20046;-70
2022/05/30 04:13:08;;;;;;;5.43;5.22;;;;;;;8.66;100.00;100782.91;6025197;23;20094;-70
2022/05/30 04:15:34;;;;;;;3.70;3.60;;;;;;;8.63;100.00;100783.03;6082340;23;20014;-69
2022/05/30 04:18:01;;;;;;;5.55;5.35;;;;;;;8.67;100.00;100792.44;6049144;23;20525;-69
2022/05/30 04:20:28;;;;;;;4.28;4.07;;;;;;;8.58;100.00;100771.94;6081133;23;20040;-69
2022/05/30 04:22:55;;;;;;;6.20;5.90;;;;;;;8.64;100.00;100770.78;6051116;23;20026;-68
2022/05/30 04:25:21;;;;;;;3.95;3.80;;;;;;;8.79;100.00;100802.38;6061535;23;20080;-69
2022/05/30 04:27:50;;;;;;;4.15;3.95;;;;;;;8.80;100.00;100787.56;6051885;23;20014;-68
2022/05/30 04:30:17;;;;;;;3.88;3.75;;;;;;;8.95;100.00;100789.47;6085797;23;20029;-69
2022/05/30 04:32:44;;;;;;;3.65;3.55;;;;;;;9.02;100.00;100795.31;6041696;23;20041;-69
2022/05/30 04:35:11;;;;;;;3.75;3.63;;;;;;;8.06;100.00;100617.22;6079722;23;20058;-70
2022/05/30 04:37:38;;;;;;;4.00;3.80;;;;;;;9.08;100.00;100774.09;6054150;23;20015;-71
2022/05/30 04:40:06;;;;;;;5.40;5.20;;;;;;;9.33;100.00;100799.19;6075248;23;20453;-69
2022/05/30 04:42:33;;;;;;;3.70;3.60;;;;;;;9.14;100.00;100768.59;6083396;23;20073;-70
2022/05/30 04:44:59;;;;;;;5.22;5.03;;;;;;;9.23;100.00;100775.16;6052393;23;20110;-72
2022/05/30 04:47:26;;;;;;;4.15;3.95;;;;;;;9.38;100.00;100784.09;6078476;23;20239;-70
2022/05/30 04:49:52;;;;;;;5.10;4.90;;;;;;;9.33;100.00;100776.44;6042539;23;20104;-70
2022/05/30 04:52:19;;;;;;;4.22;4.03;;;;;;;9.60;99.02;100799.66;6079215;23;20032;-69
2022/05/30 04:54:45;;;;;;;4.10;3.90;;;;;;;9.49;96.23;100794.94;6028087;23;20652;-68
2022/05/30 04:57:12;;;;;;;4.13;3.92;;;;;;;9.38;94.47;100768.38;6080773;23;20369;-69
2022/05/30 04:59:39;;;;;;;4.10;3.90;;;;;;;9.73;95.09;100806.03;6052843;23;20080;-70
2022/05/30 05:02:06;;;;;;;4.88;4.68;;;;;;;9.57;94.57;100784.09;6071581;23;20026;-68
2022/05/30 05:04:33;;;;;;;4.10;3.90;;;;;;;9.75;92.83;100811.22;6053497;23;20466;-68
2022/05/30 05:07:01;;;;;;;5.80;5.55;;;;;;;9.82;91.70;100819.63;6077722;23;20077;-68
2022/05/30 05:09:34;;;;;;;4.20;4.00;;;;;;;9.78;89.97;100818.91;6056572;23;20029;-69
2022/05/30 05:12:00;;;;;;;5.38;5.18;;;;;;;9.58;90.60;100781.41;6051967;23;20467;-69
2022/05/30 05:14:27;;;;;;;4.15;3.95;;;;;;;9.64;90.56;100784.66;6082106;23;20384;-70
2022/05/30 05:16:53;;;;;;;4.82;4.63;;;;;;;9.95;88.88;100821.59;6045820;23;20034;-70
2022/05/30 05:19:20;;;;;;;4.10;3.90;;;;;;;9.76;85.49;100826.00;6054239;23;20015;-70
2022/05/30 05:21:46;;;;;;;3.80;3.70;;;;;;;9.76;85.73;100811.16;6080348;23;20314;-69
2022/05/30 05:24:15;;;;;;;3.72;3.63;;;;;;;9.57;86.30;100789.34;6059745;23;20230;-70
2022/05/30 05:26:47;;;;;;;4.00;3.80;;;;;;;9.66;88.17;100786.31;6068109;23;20034;-69
2022/05/30 05:29:16;;;;;;;4.20;4.00;;;;;;;10.04;89.84;100833.41;6081725;23;20096;-69
2022/05/30 05:31:43;;;;;;;3.92;3.80;;;;;;;10.08;89.79;100831.50;6050994;23;20055;-69
2022/05/30 05:34:12;;;;;;;4.72;4.53;;;;;;;10.13;89.27;100804.13;6069782;23;20458;-72
2022/05/30 05:36:42;;;;;;;4.15;3.95;;;;;;;10.35;87.77;100822.31;6053409;23;20050;-70
2022/05/30 05:39:09;;;;;;;4.60;4.40;;;;;;;10.54;86.53;100830.16;6076578;23;20089;-69
2022/05/30 05:41:36;;;;;;;4.10;3.90;;;;;;;10.51;84.60;100837.31;6053164;23;20129;-70
2022/05/30 05:44:03;;;;;;;5.43;5.20;;;;;;;10.29;82.27;100845.38;6079114;23;20134;-70
2022/05/30 05:46:30;;;;;;;3.90;3.75;;;;;;;10.32;83.57;100846.09;6057559;23;20381;-70
2022/05/30 05:48:59;;;;;;;5.47;5.28;;;;;;;10.30;82.69;100857.56;6065306;23;20391;-70
2022/05/30 05:51:27;;;;;;;4.95;4.65;;;;;;;10.29;83.17;100861.09;6048206;23;20452;-69
2022/05/30 05:53:54;;;;;;;5.82;5.60;;;;;;;10.32;83.86;100861.84;6048256;23;20437;-69
2022/05/30 05:56:28;;;;;;;4.18;3.97;;;;;;;10.46;83.29;100847.19;6091570;23;20030;-70
2022/05/30 05:58:55;;;;;;;6.13;5.82;;;;;;;9.33;82.51;100650.72;6044531;23;20025;-69
2022/05/30 06:01:30;;;;;;;4.10;3.90;;;;;;;10.41;81.82;100812.47;6079761;23;20030;-69
2022/05/30 06:04:00;;;;;;;5.80;5.47;;;;;;;10.44;81.39;100817.53;6045394;23;20270;-69
2022/05/30 06:06:26;;;;;;;4.15;3.95;;;;;;;10.49;80.75;100815.56;6054078;23;20027;-72
2022/05/30 06:08:56;;;;;;;5.38;5.18;;;;;;;10.90;79.23;100847.56;6079775;23;20149;-71
2022/05/30 06:11:24;;;;;;;4.30;4.10;;;;;;;10.48;75.16;100795.47;6064091;23;20105;-72
2022/05/30 06:13:51;;;;;;;4.70;4.50;;;;;;;10.80;77.70;100864.72;6086682;23;20447;-68
2022/05/30 06:16:34;;;;;;;4.50;4.30;;;;;;;10.97;79.57;100861.25;6055174;23;20094;-69
2022/05/30 06:19:02;;;;;;;5.88;5.55;;;;;;;10.90;78.43;100862.47;6052877;23;20029;-69
2022/05/30 06:21:31;;;;;;;4.20;4.00;;;;;;;10.90;76.22;100857.22;6056401;23;20089;-69
2022/05/30 06:23:59;;;;;;;5.88;5.60;;;;;;;11.04;75.74;100860.00;6077361;23;20069;-69
2022/05/30 06:26:26;;;;;;;4.20;4.00;;;;;;;10.73;76.02;100830.06;6053516;23;20097;-68
2022/05/30 06:28:56;;;;;;;5.60;5.40;;;;;;;11.30;75.81;100856.00;6052187;23;20483;-69
2022/05/30 06:31:28;;;;;;;5.00;4.80;;;;;;;10.96;75.14;100836.78;6056144;23;20375;-69
2022/05/30 06:33:56;;;;;;;5.78;5.53;;;;;;;11.01;74.34;100861.94;6046286;23;20260;-73
2022/05/30 06:36:24;;;;;;;4.40;4.20;;;;;;;10.99;75.29;100856.78;6080637;23;20393;-71
2022/05/30 06:38:52;;;;;;;5.25;5.05;;;;;;;11.28;75.29;100867.53;6052088;23;20089;-73
2022/05/30 06:41:27;;;;;;;4.25;4.05;;;;;;;11.33;73.29;100876.03;6058844;23;20112;-72
2022/05/30 06:44:00;;;;;;;6.22;5.93;;;;;;;11.44;74.87;100875.47;6049097;23;20006;-73
2022/05/30 06:46:27;;;;;;;4.65;4.45;;;;;;;11.38;73.68;100863.50;6059724;23;20490;-71
2022/05/30 06:48:56;;;;;;;5.57;5.32;;;;;;;11.80;72.61;100870.00;6076925;23;20032;-69
2022/05/30 06:51:25;;;;;;;4.72;4.53;;;;;;;11.95;70.15;100877.09;6084056;23;20017;-72
2022/05/30 06:53:52;;;;;;;4.93;4.72;;;;;;;12.18;69.41;100873.16;6055852;23;20019;-73
2022/05/30 06:56:32;;;;;;;4.40;4.20;;;;;;;12.35;67.42;100851.19;6052895;23;20463;-71
2022/05/30 06:59:00;;;;;;;6.10;5.80;;;;;;;12.36;66.37;100854.66;6088036;23;20042;-69
2022/05/30 07:01:30;;;;;;;4.70;4.50;;;;;;;12.49;65.31;100873.22;6067952;23;20053;-68
2022/05/30 07:03:57;;;;;;;5.97;5.68;;;;;;;12.17;65.83;100857.50;6081930;23;20014;-69
2022/05/30 07:06:37;;;;;;;4.72;4.53;;;;;;;11.95;65.57;100890.25;6033671;23;20462;-68
2022/05/30 07:09:04;;;;;;;6.15;5.85;;;;;;;12.18;66.13;100880.22;6052376;23;20018;-73
2022/05/30 07:11:31;;;;;;;4.75;4.55;;;;;;;12.53;65.77;100885.28;6054941;23;20038;-73
2022/05/30 07:13:57;;;;;;;6.07;5.78;;;;;;;12.71;65.39;100889.47;6074889;23;20525;-71
2022/05/30 07:16:24;;;;;;;4.50;4.30;;;;;;;12.26;67.60;100887.69;6051766;23;20019;-71
2022/05/30 07:18:51;;;;;;;5.68;5.40;;;;;;;12.29;68.03;100867.31;6069944;23;20538;-69
2022/05/30 07:21:20;;;;;;;4.35;4.15;;;;;;;12.38;65.30;100853.63;6083259;23;20038;-68
2022/05/30 07:23:46;;;;;;;4.53;4.32;;;;;;;12.93;65.70;100894.34;6053945;23;20497;-68
2022/05/30 07:26:19;;;;;;;4.90;4.70;;;;;;;13.27;64.29;100896.72;6068691;23;20018;-68
2022/05/30 07:28:48;;;;;;;4.68;4.47;;;;;;;13.17;62.74;100896.47;6044163;23;20018;-67
2022/05/30 07:31:17;;;;;;;4.82;4.63;;;;;;;12.87;63.70;100852.56;6048518;23;20178;-68
2022/05/30 07:33:46;;;;;;;4.53;4.32;;;;;;;12.95;63.63;100899.53;6051813;23;20060;-68
2022/05/30 07:36:21;;;;;;;5.20;4.90;;;;;;;13.39;62.44;100895.19;6078859;23;20022;-70
2022/05/30 07:38:50;;;;;;;4.93;4.72;;;;;;;13.73;61.16;100889.53;6046028;23;20015;-72
2022/05/30 07:41:18;;;;;;;4.75;4.55;;;;;;;14.17;59.84;100895.56;6036962;23;20032;-68
2022/05/30 07:43:45;;;;;;;4.80;4.60;;;;;;;14.23;59.53;100892.56;6072426;23;20242;-68
2022/05/30 07:46:14;;;;;;;4.95;4.65;;;;;;;14.67;59.72;100896.75;6051500;23;20045;-68
2022/05/30 07:48:41;;;;;;;4.90;4.70;;;;;;;14.92;56.08;100895.97;6046566;23;20011;-69
2022/05/30 07:51:10;;;;;;;5.00;4.80;;;;;;;14.91;52.25;100894.28;6070568;23;20704;-71
2022/05/30 07:53:38;;;;;;;4.95;4.75;;;;;;;14.65;53.89;100855.53;6061098;23;20023;-68
2022/05/30 07:56:07;;;;;;;6.25;5.95;;;;;;;15.08;52.34;100887.00;6047645;23;20026;-68
2022/05/30 07:58:33;;;;;;;4.85;4.65;;;;;;;15.35;53.63;100892.19;6081626;23;20102;-69
2022/05/30 08:01:00;;;;;;;6.22;5.93;;;;;;;15.51;50.02;100890.16;6044563;23;20037;-69
2022/05/30 08:03:26;;;;;;;4.97;4.78;;;;;;;15.62;51.88;100897.34;6076342;23;20523;-69
2022/05/30 08:06:08;;;;;;;6.32;6.03;;;;;;;15.13;50.40;100867.25;6050477;23;20027;-68
2022/05/30 08:08:34;;;;;;;4.80;4.60;;;;;;;15.40;51.60;100860.97;6078353;23;20096;-69
2022/05/30 08:11:01;;;;;;;6.78;6.47;;;;;;;15.71;50.86;100886.09;6050347;23;20026;-69
2022/05/30 08:13:27;;;;;;;5.22;5.00;;;;;;;16.08;51.30;100886.16;6084448;23;20036;-69
2022/05/30 08:15:54;;;;;;;6.25;5.95;;;;;;;16.61;49.96;100887.63;6047891;23;20018;-68
2022/05/30 08:18:20;;;;;;;5.35;5.15;;;;;;;16.13;48.84;100883.19;6085907;23;20506;-68
2022/05/30 08:20:48;;;;;;;5.63;5.22;;;;;;;15.55;48.43;100875.78;6049224;23;20029;-73
2022/05/30 08:23:14;;;;;;;4.78;4.57;;;;;;;15.00;52.32;100882.22;6083773;23;21304;-67
2022/05/30 08:25:43;;;;;;;4.90;4.70;;;;;;;14.53;54.70;100889.72;6033750;23;20026;-68
2022/05/30 08:28:11;;;;;;;5.00;4.80;;;;;;;14.23;55.59;100878.50;6055090;23;20037;-68
2022/05/30 08:30:38;;;;;;;4.75;4.55;;;;;;;14.04;57.44;100870.94;6043651;23;20256;-71
2022/05/30 08:33:16;;;;;;;6.10;5.80;;;;;;;14.07;58.40;100897.09;6060431;23;20031;-73
2022/05/30 08:35:45;;;;;;;4.90;4.70;;;;;;;13.85;58.79;100898.47;6083491;23;20380;-72
2022/05/30 08:38:12;;;;;;;10.10;5.63;;;;;;;13.95;59.79;100883.75;6059240;23;20044;-68
2022/05/30 08:43:31;;;;;;;4.85;4.65;;;;;;;14.60;57.57;100908.66;6066226;23;20104;-69
2022/05/30 08:46:22;;;;;;;6.35;6.05;;;;;;;14.81;58.54;100887.06;6035365;23;20076;-69
2022/05/30 08:49:01;;;;;;;5.20;5.00;;;;;;;13.88;59.73;100900.91;6074621;23;20087;-70
2022/05/30 08:52:05;;;;;;;4.97;4.78;;;;;;;14.12;59.26;100909.06;6047828;23;20019;-70
2022/05/30 08:54:44;;;;;;;5.22;5.03;;;;;;;14.49;58.01;100912.00;6051844;23;20039;-69
2022/05/30 08:57:39;;;;;;;5.13;4.93;;;;;;;13.71;58.82;100920.44;6075666;23;20413;-70
2022/05/30 09:00:25;;;;;;;6.20;5.90;;;;;;;14.34;57.90;100915.63;6048780;23;20318;-69
2022/05/30 09:03:01;;;;;;;5.90;5.63;;;;;;;14.76;56.89;100908.50;6052448;23;20031;-69
2022/05/30 09:05:50;;;;;;;4.75;4.55;;;;;;;15.32;54.95;100905.63;6085147;23;20023;-69
2022/05/30 09:08:26;;;;;;;4.68;4.47;;;;;;;15.12;53.10;100880.56;6020060;23;20038;-69
2022/05/30 09:11:02;;;;;;;6.45;6.15;;;;;;;15.44;52.91;100917.16;6049440;23;20010;-69
2022/05/30 09:13:43;;;;;;;5.10;4.90;;;;;;;15.18;52.48;100917.13;6048812;23;20101;-69
2022/05/30 09:16:34;;;;;;;5.38;5.07;;;;;;;15.28;52.25;100920.00;6048156;23;20018;-70
2022/05/30 09:19:06;;;;;;;6.53;6.22;;;;;;;15.31;50.99;100914.50;6065660;23;20126;-72
2022/05/30 09:21:33;;;;;;;4.90;4.70;;;;;;;15.36;50.86;100918.53;6054861;23;20260;-70
2022/05/30 09:24:00;;;;;;;6.25;5.95;;;;;;;15.52;52.67;100898.97;6078543;23;20024;-70
2022/05/30 09:26:32;;;;;;;4.72;4.53;;;;;;;14.16;54.77;100913.19;6055432;23;20354;-69
2022/05/30 09:29:05;;;;;;;6.43;6.03;;;;;;;14.55;55.43;100913.34;6045115;23;20026;-69
2022/05/30 09:32:05;;;;;;;4.80;4.60;;;;;;;14.89;55.18;100908.53;6050576;23;20042;-68
2022/05/30 09:34:45;;;;;;;4.70;4.50;;;;;;;14.93;52.47;100900.31;6081093;23;20085;-71
2022/05/30 09:37:34;;;;;;;5.10;4.90;;;;;;;14.90;51.96;100895.22;6042469;23;20335;-69
2022/05/30 09:40:00;;;;;;;6.53;6.22;;;;;;;15.18;54.24;100911.03;6035714;23;20494;-70
2022/05/30 09:42:31;;;;;;;4.80;4.60;;;;;;;15.48;53.78;100918.63;6077379;23;20022;-69
2022/05/30 09:45:08;;;;;;;6.43;6.13;;;;;;;15.36;54.74;100910.59;6052198;23;20011;-69
2022/05/30 09:47:35;;;;;;;6.60;5.97;;;;;;;15.55;54.90;100917.25;6060877;23;20100;-70
2022/05/30 09:50:14;;;;;;;6.00;5.70;;;;;;;15.38;52.93;100907.84;6090678;23;20016;-73
2022/05/30 09:52:41;;;;;;;5.00;4.80;;;;;;;15.62;54.56;100913.22;6049339;23;20010;-71
2022/05/30 09:55:27;;;;;;;5.18;4.97;;;;;;;15.97;53.26;100896.66;6043006;23;20125;-71
2022/05/30 09:58:00;;;;;;;6.30;6.00;;;;;;;16.21;51.69;100915.25;6043235;23;20018;-73
2022/05/30 10:00:29;;;;;;;4.90;4.70;;;;;;;16.06;50.08;100911.06;6079742;23;20399;-69
2022/05/30 10:03:28;;;;;;;6.75;6.45;;;;;;;15.72;48.61;100909.00;6045643;23;20599;-69
2022/05/30 10:06:14;;;;;;;6.32;6.03;;;;;;;16.07;49.30;100910.09;6018181;23;20026;-70
2022/05/30 10:08:43;;;;;;;4.90;4.70;;;;;;;16.42;49.04;100907.53;6074352;23;20026;-69
2022/05/30 10:11:24;;;;;;;5.30;5.07;;;;;;;16.25;46.59;100887.56;6048105;23;20018;-69
2022/05/30 10:13:53;;;;;;;5.55;5.25;;;;;;;16.51;46.83;100903.38;6078285;23;20165;-69
2022/05/30 10:16:30;;;;;;;4.90;4.70;;;;;;;16.30;47.31;100909.28;6045873;23;20040;-70
2022/05/30 10:19:01;;;;;;;6.20;5.90;;;;;;;16.60;48.53;100886.78;6067737;23;20416;-68
2022/05/30 10:28:20;;;;;;;5.82;5.53;;;;;;;17.64;44.15;100896.56;6023024;23;20102;-69
2022/05/30 10:30:55;;;;;;;5.18;4.97;;;;;;;16.91;44.58;100900.41;6050054;23;20015;-67
2022/05/30 10:33:49;;;;;;;5.05;4.85;;;;;;;16.70;45.56;100908.16;6067809;23;20020;-68
2022/05/30 10:36:19;;;;;;;5.13;4.93;;;;;;;16.61;46.98;100906.19;6047299;23;20035;-68
2022/05/30 10:38:52;;;;;;;8.73;5.20;;;;;;;15.15;47.07;100787.81;6066991;23;20093;-68
2022/05/30 10:41:54;;;;;;;5.15;4.95;;;;;;;15.50;49.42;100903.50;6042320;23;20209;-68
2022/05/30 10:44:32;;;;;;;4.93;4.72;;;;;;;14.59;50.25;100880.53;6040142;23;20349;-68
2022/05/30 10:47:15;;;;;;;6.47;6.18;;;;;;;14.58;50.87;100917.66;6072472;23;20096;-68
2022/05/30 10:50:04;;;;;;;4.90;4.70;;;;;;;14.18;50.91;100899.06;6067774;23;20059;-68
2022/05/30 10:52:58;;;;;;;4.80;4.60;;;;;;;14.29;50.86;100915.94;6071268;23;20030;-68
2022/05/30 10:55:29;;;;;;;;;;;;;;;14.16;50.90;100915.84;6044326;23;20026;-68
2022/05/30 10:58:00;;;;;;;5.35;5.15;;;;;;;14.62;51.79;100893.56;6082412;23;20279;-69
2022/05/30 11:00:43;;;;;;;4.67;4.47;;;;;;;15.34;50.28;100917.78;6088757;23;20060;-68
2022/05/30 11:03:21;;;;;;;4.97;4.78;;;;;;;15.51;48.48;100911.31;6072999;23;20300;-68
2022/05/30 11:06:03;;;;;;;4.95;4.75;;;;;;;15.46;47.82;100929.31;6060010;23;20026;-68
2022/05/30 11:08:49;;;;;;;4.93;4.72;;;;;;;15.66;48.57;100913.88;6054816;23;20030;-68
2022/05/30 11:11:47;;;;;;;5.10;4.80;;;;;;;15.92;47.86;100915.53;6048876;23;20055;-68
2022/05/30 11:14:31;;;;;;;4.70;4.50;;;;;;;16.34;48.25;100909.91;6020494;23;21364;-70
2022/05/30 11:17:23;;;;;;;6.30;6.00;;;;;;;16.33;48.15;100906.41;6080879;23;20030;-69
2022/05/30 11:20:11;;;;;;;5.45;5.22;;;;;;;17.13;46.78;100910.22;6074158;23;20025;-68
2022/05/30 11:22:45;;;;;;;5.03;4.82;;;;;;;17.13;45.83;100857.19;6047714;23;20077;-69
2022/05/30 11:25:24;;;;;;;5.20;5.00;;;;;;;18.00;44.71;100907.91;6079720;23;20021;-69
2022/05/30 11:28:09;;;;;;;5.82;5.55;;;;;;;17.51;44.54;100859.50;6042457;23;20498;-69
2022/05/30 11:30:46;;;;;;;4.90;4.70;;;;;;;17.82;45.07;100915.50;6074281;23;20060;-69
2022/05/30 11:33:15;;;;;;;4.90;4.70;;;;;;;18.03;42.44;100918.25;6035052;23;20353;-70
2022/05/30 11:35:59;;;;;;;5.20;5.00;;;;;;;16.83;43.49;100918.72;6085372;23;20082;-70
2022/05/30 11:38:59;;;;;;;5.18;4.95;;;;;;;16.66;46.26;100920.78;6056504;23;20088;-71
2022/05/30 11:42:10;;;;;;;5.22;5.03;;;;;;;16.84;46.57;100915.06;6048849;23;20093;-70
2022/05/30 11:44:48;;;;;;;5.75;5.35;;;;;;;16.77;45.81;100919.97;6008224;23;20250;-70
2022/05/30 11:47:24;;;;;;;5.00;4.80;;;;;;;16.31;44.72;100883.63;6051015;23;20014;-70
2022/05/30 11:49:51;;;;;;;6.10;5.80;;;;;;;16.14;45.66;100921.94;6039444;23;20049;-70
2022/05/30 11:52:41;;;;;;;5.20;5.00;;;;;;;16.24;45.89;100919.50;6048708;23;21089;-68
2022/05/30 11:55:11;;;;;;;5.63;5.43;;;;;;;16.26;46.06;100918.41;6027134;23;20042;-70
2022/05/30 11:57:51;;;;;;;5.25;4.95;;;;;;;15.85;45.02;100916.06;6057337;23;20089;-71
2022/05/30 12:00:34;;;;;;;4.85;4.65;;;;;;;15.34;44.78;100849.03;6073916;23;20025;-70
2022/05/30 12:03:03;;;;;;;7.07;6.68;;;;;;;15.85;46.03;100919.56;6047196;23;20386;-70